sensor_id;sensor_type;location;lat;lon;timestamp;temperature;humidity
21540;DHT22;10931;52.164;5.518;2023-06-22T00:02:24;30.20;54.50
21540;DHT22;10931;52.164;5.518;2023-06-22T00:04:51;30.20;54.50
21540;DHT22;10931;52.164;5.518;2023-06-22T00:07:16;30.10;54.50
21540;DHT22;10931;52.164;5.518;2023-06-22T00:09:42;30.10;54.50
21540;DHT22;10931;52.164;5.518;2023-06-22T00:12:10;30.10;54.50
21540;DHT22;10931;52.164;5.518;2023-06-22T00:14:40;30.10;54.50
21540;DHT22;10931;52.164;5.518;2023-06-22T00:17:06;30.10;54.50
21540;DHT22;10931;52.164;5.518;2023-06-22T00:19:32;30.10;54.50
21540;DHT22;10931;52.164;5.518;2023-06-22T00:22:00;30.10;54.50
21540;DHT22;10931;52.164;5.518;2023-06-22T00:24:28;30.10;54.50
21540;DHT22;10931;52.164;5.518;2023-06-22T00:26:54;30.10;54.50
21540;DHT22;10931;52.164;5.518;2023-06-22T00:29:22;30.10;54.50
21540;DHT22;10931;52.164;5.518;2023-06-22T00:32:04;30.00;55.10
21540;DHT22;10931;52.164;5.518;2023-06-22T00:34:29;30.00;54.40
21540;DHT22;10931;52.164;5.518;2023-06-22T00:37:06;30.00;54.40
21540;DHT22;10931;52.164;5.518;2023-06-22T00:39:32;30.00;54.50
21540;DHT22;10931;52.164;5.518;2023-06-22T00:42:01;30.00;54.50
21540;DHT22;10931;52.164;5.518;2023-06-22T00:44:27;30.00;54.50
21540;DHT22;10931;52.164;5.518;2023-06-22T00:46:53;30.00;54.50
21540;DHT22;10931;52.164;5.518;2023-06-22T00:49:21;30.00;54.50
21540;DHT22;10931;52.164;5.518;2023-06-22T00:51:49;30.00;54.50
21540;DHT22;10931;52.164;5.518;2023-06-22T00:54:15;29.90;54.40
21540;DHT22;10931;52.164;5.518;2023-06-22T00:56:44;29.90;54.50
21540;DHT22;10931;52.164;5.518;2023-06-22T00:59:16;29.90;54.50
21540;DHT22;10931;52.164;5.518;2023-06-22T01:01:42;29.90;54.50
21540;DHT22;10931;52.164;5.518;2023-06-22T01:04:08;29.90;54.50
21540;DHT22;10931;52.164;5.518;2023-06-22T01:06:40;29.90;54.50
21540;DHT22;10931;52.164;5.518;2023-06-22T01:09:15;29.80;54.40
21540;DHT22;10931;52.164;5.518;2023-06-22T01:12:08;29.80;54.50
21540;DHT22;10931;52.164;5.518;2023-06-22T01:14:49;29.80;54.50
21540;DHT22;10931;52.164;5.518;2023-06-22T01:17:15;29.80;54.50
21540;DHT22;10931;52.164;5.518;2023-06-22T01:19:50;29.80;54.50
21540;DHT22;10931;52.164;5.518;2023-06-22T01:22:23;29.80;54.50
21540;DHT22;10931;52.164;5.518;2023-06-22T01:25:12;29.80;54.50
21540;DHT22;10931;52.164;5.518;2023-06-22T01:30:46;29.80;54.50
21540;DHT22;10931;52.164;5.518;2023-06-22T01:33:13;29.70;54.40
21540;DHT22;10931;52.164;5.518;2023-06-22T01:35:40;29.70;54.40
21540;DHT22;10931;52.164;5.518;2023-06-22T01:38:11;29.70;54.40
21540;DHT22;10931;52.164;5.518;2023-06-22T01:40:37;29.70;54.40
21540;DHT22;10931;52.164;5.518;2023-06-22T01:43:06;29.70;54.40
21540;DHT22;10931;52.164;5.518;2023-06-22T01:45:42;29.70;54.40
21540;DHT22;10931;52.164;5.518;2023-06-22T01:48:08;29.70;54.40
21540;DHT22;10931;52.164;5.518;2023-06-22T01:50:34;29.60;54.30
21540;DHT22;10931;52.164;5.518;2023-06-22T01:53:00;29.60;54.40
21540;DHT22;10931;52.164;5.518;2023-06-22T01:55:37;29.60;54.30
21540;DHT22;10931;52.164;5.518;2023-06-22T01:58:04;29.70;54.40
21540;DHT22;10931;52.164;5.518;2023-06-22T02:00:33;29.60;54.30
21540;DHT22;10931;52.164;5.518;2023-06-22T02:03:14;29.60;54.40
21540;DHT22;10931;52.164;5.518;2023-06-22T02:05:48;29.60;54.40
21540;DHT22;10931;52.164;5.518;2023-06-22T02:08:24;29.60;54.30
21540;DHT22;10931;52.164;5.518;2023-06-22T02:11:00;29.60;54.40
21540;DHT22;10931;52.164;5.518;2023-06-22T02:13:28;29.50;54.30
21540;DHT22;10931;52.164;5.518;2023-06-22T02:15:56;29.50;54.30
21540;DHT22;10931;52.164;5.518;2023-06-22T02:18:23;29.50;54.30
21540;DHT22;10931;52.164;5.518;2023-06-22T02:20:50;29.50;54.30
21540;DHT22;10931;52.164;5.518;2023-06-22T02:23:16;29.50;54.30
21540;DHT22;10931;52.164;5.518;2023-06-22T02:25:42;29.50;54.30
21540;DHT22;10931;52.164;5.518;2023-06-22T02:28:09;29.50;54.30
21540;DHT22;10931;52.164;5.518;2023-06-22T02:30:35;29.50;54.30
21540;DHT22;10931;52.164;5.518;2023-06-22T02:33:01;29.50;54.30
21540;DHT22;10931;52.164;5.518;2023-06-22T02:35:29;29.50;54.30
21540;DHT22;10931;52.164;5.518;2023-06-22T02:38:01;29.40;54.20
21540;DHT22;10931;52.164;5.518;2023-06-22T02:40:29;29.40;54.20
21540;DHT22;10931;52.164;5.518;2023-06-22T02:42:58;29.40;54.20
21540;DHT22;10931;52.164;5.518;2023-06-22T02:45:29;29.40;54.20
21540;DHT22;10931;52.164;5.518;2023-06-22T02:47:55;29.40;54.20
21540;DHT22;10931;52.164;5.518;2023-06-22T02:50:21;29.40;54.20
21540;DHT22;10931;52.164;5.518;2023-06-22T02:52:47;29.30;54.10
21540;DHT22;10931;52.164;5.518;2023-06-22T02:55:12;29.30;54.10
21540;DHT22;10931;52.164;5.518;2023-06-22T02:57:38;29.30;54.10
21540;DHT22;10931;52.164;5.518;2023-06-22T03:00:10;29.30;54.10
21540;DHT22;10931;52.164;5.518;2023-06-22T03:02:45;29.30;54.10
21540;DHT22;10931;52.164;5.518;2023-06-22T03:05:12;29.30;54.10
21540;DHT22;10931;52.164;5.518;2023-06-22T03:07:42;29.30;54.20
21540;DHT22;10931;52.164;5.518;2023-06-22T03:10:13;29.20;54.10
21540;DHT22;10931;52.164;5.518;2023-06-22T03:12:46;29.20;54.10
21540;DHT22;10931;52.164;5.518;2023-06-22T03:15:12;29.20;54.10
21540;DHT22;10931;52.164;5.518;2023-06-22T03:17:39;29.20;54.10
21540;DHT22;10931;52.164;5.518;2023-06-22T03:20:09;29.20;54.10
21540;DHT22;10931;52.164;5.518;2023-06-22T03:22:37;29.20;54.10
21540;DHT22;10931;52.164;5.518;2023-06-22T03:25:14;29.20;54.10
21540;DHT22;10931;52.164;5.518;2023-06-22T03:27:41;29.10;54.00
21540;DHT22;10931;52.164;5.518;2023-06-22T03:30:11;29.10;54.00
21540;DHT22;10931;52.164;5.518;2023-06-22T03:32:37;29.20;54.10
21540;DHT22;10931;52.164;5.518;2023-06-22T03:35:03;29.10;54.00
21540;DHT22;10931;52.164;5.518;2023-06-22T03:37:50;29.10;54.00
21540;DHT22;10931;52.164;5.518;2023-06-22T03:40:16;29.10;54.00
21540;DHT22;10931;52.164;5.518;2023-06-22T03:42:41;29.10;54.10
21540;DHT22;10931;52.164;5.518;2023-06-22T03:45:07;29.10;54.00
21540;DHT22;10931;52.164;5.518;2023-06-22T03:47:33;29.10;54.10
21540;DHT22;10931;52.164;5.518;2023-06-22T03:49:59;29.00;54.00
21540;DHT22;10931;52.164;5.518;2023-06-22T03:52:25;29.00;54.00
21540;DHT22;10931;52.164;5.518;2023-06-22T03:54:51;29.10;54.00
21540;DHT22;10931;52.164;5.518;2023-06-22T03:57:16;29.00;54.00
21540;DHT22;10931;52.164;5.518;2023-06-22T03:59:42;29.00;54.00
21540;DHT22;10931;52.164;5.518;2023-06-22T04:02:08;29.00;54.00
21540;DHT22;10931;52.164;5.518;2023-06-22T04:04:34;29.00;54.00
21540;DHT22;10931;52.164;5.518;2023-06-22T04:07:04;29.00;54.00
21540;DHT22;10931;52.164;5.518;2023-06-22T04:09:30;29.00;54.00
21540;DHT22;10931;52.164;5.518;2023-06-22T04:11:56;28.90;53.90
21540;DHT22;10931;52.164;5.518;2023-06-22T04:14:21;28.90;53.90
21540;DHT22;10931;52.164;5.518;2023-06-22T04:16:48;28.90;53.90
21540;DHT22;10931;52.164;5.518;2023-06-22T04:19:13;28.90;53.90
21540;DHT22;10931;52.164;5.518;2023-06-22T04:21:44;28.90;54.00
21540;DHT22;10931;52.164;5.518;2023-06-22T04:24:11;28.90;53.90
21540;DHT22;10931;52.164;5.518;2023-06-22T04:26:37;28.90;54.00
21540;DHT22;10931;52.164;5.518;2023-06-22T04:29:07;28.90;54.00
21540;DHT22;10931;52.164;5.518;2023-06-22T04:31:34;28.90;54.00
21540;DHT22;10931;52.164;5.518;2023-06-22T04:34:05;28.80;54.00
21540;DHT22;10931;52.164;5.518;2023-06-22T04:36:40;28.80;54.00
21540;DHT22;10931;52.164;5.518;2023-06-22T04:41:32;28.80;54.00
21540;DHT22;10931;52.164;5.518;2023-06-22T04:44:19;28.80;54.00
21540;DHT22;10931;52.164;5.518;2023-06-22T04:47:00;28.80;54.00
21540;DHT22;10931;52.164;5.518;2023-06-22T04:49:28;28.80;54.00
21540;DHT22;10931;52.164;5.518;2023-06-22T04:52:10;28.70;54.00
21540;DHT22;10931;52.164;5.518;2023-06-22T04:54:40;28.70;54.00
21540;DHT22;10931;52.164;5.518;2023-06-22T04:57:13;28.70;54.10
21540;DHT22;10931;52.164;5.518;2023-06-22T04:59:39;28.70;54.10
21540;DHT22;10931;52.164;5.518;2023-06-22T05:02:07;28.70;54.10
21540;DHT22;10931;52.164;5.518;2023-06-22T05:04:34;28.70;54.10
21540;DHT22;10931;52.164;5.518;2023-06-22T05:07:02;28.70;54.10
21540;DHT22;10931;52.164;5.518;2023-06-22T05:09:29;28.70;54.10
21540;DHT22;10931;52.164;5.518;2023-06-22T05:11:54;28.70;54.20
21540;DHT22;10931;52.164;5.518;2023-06-22T05:14:22;28.60;54.20
21540;DHT22;10931;52.164;5.518;2023-06-22T05:16:48;28.60;54.20
21540;DHT22;10931;52.164;5.518;2023-06-22T05:19:14;28.60;54.20
21540;DHT22;10931;52.164;5.518;2023-06-22T05:21:39;28.60;54.30
21540;DHT22;10931;52.164;5.518;2023-06-22T05:24:13;28.60;54.30
21540;DHT22;10931;52.164;5.518;2023-06-22T05:26:38;28.60;54.30
21540;DHT22;10931;52.164;5.518;2023-06-22T05:29:04;28.60;54.40
21540;DHT22;10931;52.164;5.518;2023-06-22T05:31:30;28.60;54.40
21540;DHT22;10931;52.164;5.518;2023-06-22T05:33:56;28.60;54.40
21540;DHT22;10931;52.164;5.518;2023-06-22T05:36:22;28.60;54.50
21540;DHT22;10931;52.164;5.518;2023-06-22T05:38:51;28.50;54.50
21540;DHT22;10931;52.164;5.518;2023-06-22T05:41:17;28.60;54.50
21540;DHT22;10931;52.164;5.518;2023-06-22T05:43:43;28.60;54.60
21540;DHT22;10931;52.164;5.518;2023-06-22T05:46:09;28.60;54.60
21540;DHT22;10931;52.164;5.518;2023-06-22T05:48:35;28.60;54.70
21540;DHT22;10931;52.164;5.518;2023-06-22T05:51:00;28.50;54.60
21540;DHT22;10931;52.164;5.518;2023-06-22T05:53:26;28.50;54.70
21540;DHT22;10931;52.164;5.518;2023-06-22T05:55:52;28.50;54.70
21540;DHT22;10931;52.164;5.518;2023-06-22T05:58:17;28.50;54.80
21540;DHT22;10931;52.164;5.518;2023-06-22T06:00:43;28.50;54.80
21540;DHT22;10931;52.164;5.518;2023-06-22T06:03:10;28.50;54.80
21540;DHT22;10931;52.164;5.518;2023-06-22T06:05:36;28.50;54.90
21540;DHT22;10931;52.164;5.518;2023-06-22T06:08:05;28.50;54.90
21540;DHT22;10931;52.164;5.518;2023-06-22T06:10:32;28.50;54.90
21540;DHT22;10931;52.164;5.518;2023-06-22T06:13:01;28.40;54.90
21540;DHT22;10931;52.164;5.518;2023-06-22T06:15:28;28.40;55.00
21540;DHT22;10931;52.164;5.518;2023-06-22T06:17:56;28.50;55.00
21540;DHT22;10931;52.164;5.518;2023-06-22T06:20:23;28.40;55.00
21540;DHT22;10931;52.164;5.518;2023-06-22T06:22:50;28.50;55.10
21540;DHT22;10931;52.164;5.518;2023-06-22T06:25:16;28.40;55.10
21540;DHT22;10931;52.164;5.518;2023-06-22T06:27:52;28.40;55.20
21540;DHT22;10931;52.164;5.518;2023-06-22T06:30:20;28.50;55.20
21540;DHT22;10931;52.164;5.518;2023-06-22T06:32:47;28.40;55.20
21540;DHT22;10931;52.164;5.518;2023-06-22T06:35:14;28.40;55.30
21540;DHT22;10931;52.164;5.518;2023-06-22T06:37:42;28.40;55.30
21540;DHT22;10931;52.164;5.518;2023-06-22T06:40:09;28.40;55.30
21540;DHT22;10931;52.164;5.518;2023-06-22T06:42:39;28.40;55.40
21540;DHT22;10931;52.164;5.518;2023-06-22T06:45:08;28.40;55.40
21540;DHT22;10931;52.164;5.518;2023-06-22T06:47:34;28.40;55.50
21540;DHT22;10931;52.164;5.518;2023-06-22T06:50:00;28.40;55.50
21540;DHT22;10931;52.164;5.518;2023-06-22T06:52:26;28.40;55.50
21540;DHT22;10931;52.164;5.518;2023-06-22T06:54:52;28.40;55.50
21540;DHT22;10931;52.164;5.518;2023-06-22T06:57:28;28.40;55.60
21540;DHT22;10931;52.164;5.518;2023-06-22T06:59:55;28.40;55.60
21540;DHT22;10931;52.164;5.518;2023-06-22T07:02:24;28.40;55.60
21540;DHT22;10931;52.164;5.518;2023-06-22T07:04:49;28.40;55.70
21540;DHT22;10931;52.164;5.518;2023-06-22T07:07:16;28.40;55.70
21540;DHT22;10931;52.164;5.518;2023-06-22T07:09:41;28.40;55.70
21540;DHT22;10931;52.164;5.518;2023-06-22T07:12:07;28.40;55.70
21540;DHT22;10931;52.164;5.518;2023-06-22T07:14:33;28.40;55.80
21540;DHT22;10931;52.164;5.518;2023-06-22T07:16:59;28.40;55.80
21540;DHT22;10931;52.164;5.518;2023-06-22T07:19:25;28.40;55.80
21540;DHT22;10931;52.164;5.518;2023-06-22T07:21:52;28.40;55.80
21540;DHT22;10931;52.164;5.518;2023-06-22T07:24:22;28.40;55.80
21540;DHT22;10931;52.164;5.518;2023-06-22T07:27:01;28.40;55.80
21540;DHT22;10931;52.164;5.518;2023-06-22T07:29:34;28.40;55.80
21540;DHT22;10931;52.164;5.518;2023-06-22T07:32:01;28.40;55.90
21540;DHT22;10931;52.164;5.518;2023-06-22T07:34:30;28.30;55.80
21540;DHT22;10931;52.164;5.518;2023-06-22T07:36:56;28.40;55.90
21540;DHT22;10931;52.164;5.518;2023-06-22T07:39:21;28.30;55.80
21540;DHT22;10931;52.164;5.518;2023-06-22T07:41:51;28.30;55.80
21540;DHT22;10931;52.164;5.518;2023-06-22T07:44:17;28.30;55.80
21540;DHT22;10931;52.164;5.518;2023-06-22T07:46:42;28.30;55.90
21540;DHT22;10931;52.164;5.518;2023-06-22T07:49:08;28.40;55.90
21540;DHT22;10931;52.164;5.518;2023-06-22T07:51:34;28.40;56.00
21540;DHT22;10931;52.164;5.518;2023-06-22T07:54:00;28.40;56.00
21540;DHT22;10931;52.164;5.518;2023-06-22T07:56:25;28.40;56.00
21540;DHT22;10931;52.164;5.518;2023-06-22T07:58:51;28.40;56.00
21540;DHT22;10931;52.164;5.518;2023-06-22T08:01:18;28.40;56.00
21540;DHT22;10931;52.164;5.518;2023-06-22T08:03:48;28.40;56.00
21540;DHT22;10931;52.164;5.518;2023-06-22T08:06:13;28.40;56.00
21540;DHT22;10931;52.164;5.518;2023-06-22T08:08:39;28.40;56.00
21540;DHT22;10931;52.164;5.518;2023-06-22T08:11:05;28.40;56.00
21540;DHT22;10931;52.164;5.518;2023-06-22T08:13:31;28.40;56.00
21540;DHT22;10931;52.164;5.518;2023-06-22T08:15:57;28.40;56.00
21540;DHT22;10931;52.164;5.518;2023-06-22T08:18:23;28.40;56.10
21540;DHT22;10931;52.164;5.518;2023-06-22T08:20:48;28.40;56.10
21540;DHT22;10931;52.164;5.518;2023-06-22T08:23:15;28.40;56.10
21540;DHT22;10931;52.164;5.518;2023-06-22T08:25:40;28.40;56.10
21540;DHT22;10931;52.164;5.518;2023-06-22T08:28:06;28.40;56.10
21540;DHT22;10931;52.164;5.518;2023-06-22T08:30:32;28.40;56.10
21540;DHT22;10931;52.164;5.518;2023-06-22T08:32:58;28.40;56.10
21540;DHT22;10931;52.164;5.518;2023-06-22T08:35:24;28.40;56.10
21540;DHT22;10931;52.164;5.518;2023-06-22T08:38:08;28.40;56.10
21540;DHT22;10931;52.164;5.518;2023-06-22T08:40:34;28.40;56.10
21540;DHT22;10931;52.164;5.518;2023-06-22T08:43:00;28.40;56.10
21540;DHT22;10931;52.164;5.518;2023-06-22T08:45:28;28.40;56.10
21540;DHT22;10931;52.164;5.518;2023-06-22T08:48:02;28.40;56.10
21540;DHT22;10931;52.164;5.518;2023-06-22T08:50:30;28.40;56.10
21540;DHT22;10931;52.164;5.518;2023-06-22T08:52:56;28.40;56.20
21540;DHT22;10931;52.164;5.518;2023-06-22T08:55:22;28.50;56.20
21540;DHT22;10931;52.164;5.518;2023-06-22T08:57:47;28.40;56.10
21540;DHT22;10931;52.164;5.518;2023-06-22T09:00:16;28.40;56.10
21540;DHT22;10931;52.164;5.518;2023-06-22T09:02:46;28.50;56.20
21540;DHT22;10931;52.164;5.518;2023-06-22T09:05:12;28.50;56.20
21540;DHT22;10931;52.164;5.518;2023-06-22T09:07:38;28.50;56.10
21540;DHT22;10931;52.164;5.518;2023-06-22T09:10:05;28.50;56.10
21540;DHT22;10931;52.164;5.518;2023-06-22T09:12:31;28.50;56.10
21540;DHT22;10931;52.164;5.518;2023-06-22T09:14:58;28.50;56.10
21540;DHT22;10931;52.164;5.518;2023-06-22T09:17:35;28.50;56.10
21540;DHT22;10931;52.164;5.518;2023-06-22T09:20:02;28.50;56.00
21540;DHT22;10931;52.164;5.518;2023-06-22T09:22:39;28.50;56.00
21540;DHT22;10931;52.164;5.518;2023-06-22T09:25:12;28.50;56.00
21540;DHT22;10931;52.164;5.518;2023-06-22T09:27:38;28.50;56.00
21540;DHT22;10931;52.164;5.518;2023-06-22T09:30:04;28.50;56.00
21540;DHT22;10931;52.164;5.518;2023-06-22T09:32:30;28.50;56.00
21540;DHT22;10931;52.164;5.518;2023-06-22T09:34:58;28.60;56.00
21540;DHT22;10931;52.164;5.518;2023-06-22T09:37:29;28.60;56.10
21540;DHT22;10931;52.164;5.518;2023-06-22T09:39:58;28.50;55.90
21540;DHT22;10931;52.164;5.518;2023-06-22T09:42:23;28.60;56.70
21540;DHT22;10931;52.164;5.518;2023-06-22T09:44:49;28.60;56.10
21540;DHT22;10931;52.164;5.518;2023-06-22T09:47:15;28.60;56.00
21540;DHT22;10931;52.164;5.518;2023-06-22T09:49:40;28.60;56.00
21540;DHT22;10931;52.164;5.518;2023-06-22T09:52:06;28.60;56.00
21540;DHT22;10931;52.164;5.518;2023-06-22T09:54:32;28.60;56.00
21540;DHT22;10931;52.164;5.518;2023-06-22T09:56:58;28.60;56.00
21540;DHT22;10931;52.164;5.518;2023-06-22T09:59:23;28.60;56.00
21540;DHT22;10931;52.164;5.518;2023-06-22T10:01:49;28.60;56.00
21540;DHT22;10931;52.164;5.518;2023-06-22T10:04:14;28.60;55.90
21540;DHT22;10931;52.164;5.518;2023-06-22T10:06:40;28.60;55.90
21540;DHT22;10931;52.164;5.518;2023-06-22T10:09:07;28.60;55.90
21540;DHT22;10931;52.164;5.518;2023-06-22T10:11:33;28.60;55.90
21540;DHT22;10931;52.164;5.518;2023-06-22T10:14:05;28.60;55.90
21540;DHT22;10931;52.164;5.518;2023-06-22T10:16:31;28.70;55.90
21540;DHT22;10931;52.164;5.518;2023-06-22T10:18:57;28.70;55.90
21540;DHT22;10931;52.164;5.518;2023-06-22T10:21:37;28.70;55.90
21540;DHT22;10931;52.164;5.518;2023-06-22T10:24:05;28.70;55.90
21540;DHT22;10931;52.164;5.518;2023-06-22T10:26:41;28.70;55.90
21540;DHT22;10931;52.164;5.518;2023-06-22T10:31:41;28.70;55.90
21540;DHT22;10931;52.164;5.518;2023-06-22T10:34:09;28.70;55.80
21540;DHT22;10931;52.164;5.518;2023-06-22T10:36:35;28.70;55.80
21540;DHT22;10931;52.164;5.518;2023-06-22T10:39:01;28.70;55.90
21540;DHT22;10931;52.164;5.518;2023-06-22T10:41:28;28.70;55.80
21540;DHT22;10931;52.164;5.518;2023-06-22T10:43:55;28.70;55.80
21540;DHT22;10931;52.164;5.518;2023-06-22T10:46:21;28.70;55.80
21540;DHT22;10931;52.164;5.518;2023-06-22T10:48:49;28.70;55.80
21540;DHT22;10931;52.164;5.518;2023-06-22T10:51:14;28.70;55.80
21540;DHT22;10931;52.164;5.518;2023-06-22T10:53:40;28.70;55.80
21540;DHT22;10931;52.164;5.518;2023-06-22T10:56:06;28.80;55.80
21540;DHT22;10931;52.164;5.518;2023-06-22T10:58:31;28.80;55.80
21540;DHT22;10931;52.164;5.518;2023-06-22T11:00:57;28.80;55.80
21540;DHT22;10931;52.164;5.518;2023-06-22T11:03:24;28.80;55.80
21540;DHT22;10931;52.164;5.518;2023-06-22T11:05:50;28.80;55.90
21540;DHT22;10931;52.164;5.518;2023-06-22T11:08:15;28.80;55.90
21540;DHT22;10931;52.164;5.518;2023-06-22T11:10:41;28.80;55.90
21540;DHT22;10931;52.164;5.518;2023-06-22T11:13:07;28.80;55.80
21540;DHT22;10931;52.164;5.518;2023-06-22T11:15:35;28.80;55.80
21540;DHT22;10931;52.164;5.518;2023-06-22T11:18:01;28.80;55.90
21540;DHT22;10931;52.164;5.518;2023-06-22T11:20:27;28.80;55.90
21540;DHT22;10931;52.164;5.518;2023-06-22T11:22:52;28.80;55.90
21540;DHT22;10931;52.164;5.518;2023-06-22T11:25:18;28.80;55.90
21540;DHT22;10931;52.164;5.518;2023-06-22T11:27:45;28.90;56.00
21540;DHT22;10931;52.164;5.518;2023-06-22T11:30:11;28.90;56.00
21540;DHT22;10931;52.164;5.518;2023-06-22T11:32:36;28.90;56.00
21540;DHT22;10931;52.164;5.518;2023-06-22T11:35:02;28.90;56.00
21540;DHT22;10931;52.164;5.518;2023-06-22T11:37:28;28.90;55.90
21540;DHT22;10931;52.164;5.518;2023-06-22T11:39:54;28.90;55.90
21540;DHT22;10931;52.164;5.518;2023-06-22T11:42:20;28.90;55.90
21540;DHT22;10931;52.164;5.518;2023-06-22T11:44:46;28.90;55.90
21540;DHT22;10931;52.164;5.518;2023-06-22T11:47:11;28.90;55.90
21540;DHT22;10931;52.164;5.518;2023-06-22T11:49:37;28.90;55.90
21540;DHT22;10931;52.164;5.518;2023-06-22T11:52:03;28.90;55.90
21540;DHT22;10931;52.164;5.518;2023-06-22T11:54:29;28.90;56.00
21540;DHT22;10931;52.164;5.518;2023-06-22T11:56:54;28.90;55.90
21540;DHT22;10931;52.164;5.518;2023-06-22T11:59:20;28.90;56.00
21540;DHT22;10931;52.164;5.518;2023-06-22T12:01:47;28.90;55.90
21540;DHT22;10931;52.164;5.518;2023-06-22T12:04:14;28.90;55.90
21540;DHT22;10931;52.164;5.518;2023-06-22T12:06:40;29.00;56.00
21540;DHT22;10931;52.164;5.518;2023-06-22T12:09:08;29.00;56.00
21540;DHT22;10931;52.164;5.518;2023-06-22T12:11:33;29.00;56.00
21540;DHT22;10931;52.164;5.518;2023-06-22T12:13:59;28.90;56.00
21540;DHT22;10931;52.164;5.518;2023-06-22T12:16:28;29.00;56.00
21540;DHT22;10931;52.164;5.518;2023-06-22T12:18:53;29.00;56.00
21540;DHT22;10931;52.164;5.518;2023-06-22T12:21:19;29.00;56.00
21540;DHT22;10931;52.164;5.518;2023-06-22T12:23:45;29.00;56.00
21540;DHT22;10931;52.164;5.518;2023-06-22T12:26:10;29.00;56.00
21540;DHT22;10931;52.164;5.518;2023-06-22T12:28:36;29.00;56.10
21540;DHT22;10931;52.164;5.518;2023-06-22T12:31:02;29.00;56.10
21540;DHT22;10931;52.164;5.518;2023-06-22T12:33:27;29.00;56.10
21540;DHT22;10931;52.164;5.518;2023-06-22T12:35:53;29.00;56.10
21540;DHT22;10931;52.164;5.518;2023-06-22T12:38:18;29.00;56.20
21540;DHT22;10931;52.164;5.518;2023-06-22T12:40:44;29.00;56.20
21540;DHT22;10931;52.164;5.518;2023-06-22T12:43:12;29.00;56.30
21540;DHT22;10931;52.164;5.518;2023-06-22T12:45:41;29.00;56.30
21540;DHT22;10931;52.164;5.518;2023-06-22T12:48:07;29.00;56.40
21540;DHT22;10931;52.164;5.518;2023-06-22T12:50:34;29.00;56.40
21540;DHT22;10931;52.164;5.518;2023-06-22T12:53:02;29.00;56.40
21540;DHT22;10931;52.164;5.518;2023-06-22T12:55:29;29.00;56.50
21540;DHT22;10931;52.164;5.518;2023-06-22T12:57:55;29.00;56.50
21540;DHT22;10931;52.164;5.518;2023-06-22T13:00:21;29.00;56.50
21540;DHT22;10931;52.164;5.518;2023-06-22T13:02:47;29.00;56.50
21540;DHT22;10931;52.164;5.518;2023-06-22T13:05:12;29.00;56.60
21540;DHT22;10931;52.164;5.518;2023-06-22T13:07:38;29.00;56.60
21540;DHT22;10931;52.164;5.518;2023-06-22T13:10:05;29.00;56.60
21540;DHT22;10931;52.164;5.518;2023-06-22T13:12:30;29.10;56.70
21540;DHT22;10931;52.164;5.518;2023-06-22T13:14:56;29.00;56.60
21540;DHT22;10931;52.164;5.518;2023-06-22T13:17:22;29.10;56.70
21540;DHT22;10931;52.164;5.518;2023-06-22T13:19:47;29.10;56.70
21540;DHT22;10931;52.164;5.518;2023-06-22T13:22:34;29.10;56.70
21540;DHT22;10931;52.164;5.518;2023-06-22T13:25:05;29.10;57.50
21540;DHT22;10931;52.164;5.518;2023-06-22T13:27:31;29.10;56.80
21540;DHT22;10931;52.164;5.518;2023-06-22T13:29:57;29.10;56.80
21540;DHT22;10931;52.164;5.518;2023-06-22T13:32:23;29.10;56.90
21540;DHT22;10931;52.164;5.518;2023-06-22T13:34:49;29.10;56.90
21540;DHT22;10931;52.164;5.518;2023-06-22T13:37:15;29.10;57.00
21540;DHT22;10931;52.164;5.518;2023-06-22T13:39:41;29.10;57.00
21540;DHT22;10931;52.164;5.518;2023-06-22T13:42:09;29.10;57.00
21540;DHT22;10931;52.164;5.518;2023-06-22T13:44:35;29.10;57.10
21540;DHT22;10931;52.164;5.518;2023-06-22T13:47:01;29.10;57.10
21540;DHT22;10931;52.164;5.518;2023-06-22T13:49:26;29.10;57.20
21540;DHT22;10931;52.164;5.518;2023-06-22T13:51:52;29.10;57.20
21540;DHT22;10931;52.164;5.518;2023-06-22T13:54:18;29.10;57.30
21540;DHT22;10931;52.164;5.518;2023-06-22T13:56:44;29.00;57.30
21540;DHT22;10931;52.164;5.518;2023-06-22T13:59:09;29.10;57.40
21540;DHT22;10931;52.164;5.518;2023-06-22T14:01:36;29.10;57.40
21540;DHT22;10931;52.164;5.518;2023-06-22T14:04:05;29.10;57.50
21540;DHT22;10931;52.164;5.518;2023-06-22T14:06:31;29.10;57.50
21540;DHT22;10931;52.164;5.518;2023-06-22T14:08:57;29.10;57.50
21540;DHT22;10931;52.164;5.518;2023-06-22T14:11:31;29.10;57.60
21540;DHT22;10931;52.164;5.518;2023-06-22T14:13:56;29.10;57.60
21540;DHT22;10931;52.164;5.518;2023-06-22T14:16:24;29.00;57.60
21540;DHT22;10931;52.164;5.518;2023-06-22T14:19:01;29.10;57.70
21540;DHT22;10931;52.164;5.518;2023-06-22T14:21:30;29.10;57.80
21540;DHT22;10931;52.164;5.518;2023-06-22T14:23:56;29.10;57.90
21540;DHT22;10931;52.164;5.518;2023-06-22T14:26:24;29.10;57.90
21540;DHT22;10931;52.164;5.518;2023-06-22T14:28:49;29.10;58.00
21540;DHT22;10931;52.164;5.518;2023-06-22T14:31:19;29.10;58.10
21540;DHT22;10931;52.164;5.518;2023-06-22T14:33:48;29.10;58.20
21540;DHT22;10931;52.164;5.518;2023-06-22T14:36:16;29.10;58.20
21540;DHT22;10931;52.164;5.518;2023-06-22T14:38:45;29.10;58.30
21540;DHT22;10931;52.164;5.518;2023-06-22T14:41:17;29.10;58.30
21540;DHT22;10931;52.164;5.518;2023-06-22T14:43:52;29.10;58.40
21540;DHT22;10931;52.164;5.518;2023-06-22T14:46:18;29.10;58.60
21540;DHT22;10931;52.164;5.518;2023-06-22T14:48:49;29.10;58.70
21540;DHT22;10931;52.164;5.518;2023-06-22T14:51:18;29.10;58.80
21540;DHT22;10931;52.164;5.518;2023-06-22T14:53:45;29.10;58.90
21540;DHT22;10931;52.164;5.518;2023-06-22T14:56:14;29.10;59.00
21540;DHT22;10931;52.164;5.518;2023-06-22T14:58:44;29.10;59.00
21540;DHT22;10931;52.164;5.518;2023-06-22T15:01:16;29.10;59.10
21540;DHT22;10931;52.164;5.518;2023-06-22T15:03:42;29.00;59.10
21540;DHT22;10931;52.164;5.518;2023-06-22T15:06:11;29.00;59.10
21540;DHT22;10931;52.164;5.518;2023-06-22T15:08:40;29.00;59.10
21540;DHT22;10931;52.164;5.518;2023-06-22T15:11:06;29.00;59.10
21540;DHT22;10931;52.164;5.518;2023-06-22T15:13:32;29.00;59.20
21540;DHT22;10931;52.164;5.518;2023-06-22T15:15:59;29.00;59.20
21540;DHT22;10931;52.164;5.518;2023-06-22T15:18:25;29.00;59.20
21540;DHT22;10931;52.164;5.518;2023-06-22T15:20:52;29.00;59.30
21540;DHT22;10931;52.164;5.518;2023-06-22T15:23:18;29.00;59.30
21540;DHT22;10931;52.164;5.518;2023-06-22T15:25:44;29.00;59.30
21540;DHT22;10931;52.164;5.518;2023-06-22T15:28:20;29.00;59.30
21540;DHT22;10931;52.164;5.518;2023-06-22T15:30:50;29.00;59.40
21540;DHT22;10931;52.164;5.518;2023-06-22T15:33:16;29.00;59.40
21540;DHT22;10931;52.164;5.518;2023-06-22T15:35:42;29.00;59.40
21540;DHT22;10931;52.164;5.518;2023-06-22T15:38:07;29.00;59.40
21540;DHT22;10931;52.164;5.518;2023-06-22T15:40:33;29.00;59.40
21540;DHT22;10931;52.164;5.518;2023-06-22T15:42:59;29.00;59.40